Time;durP1;ratioP1;P1;durP2;ratioP2;P2;SDS_P1;SDS_P2;PMS_P1;PMS_P2;Temp;Humidity;BMP_temperature;BMP_pressure;BME280_temperature;BME280_humidity;BME280_pressure;Samples;Min_cycle;Max_cycle;Signal;HPM_P1;HPM_P2
2022/04/26 03:36:53;;;;;;;18.73;10.55;;;;;;;4.28;97.34;101554.97;2073007;28;20088;-71
2022/04/26 03:37:55;;;;;;;17.33;10.73;;;;;;;4.23;97.09;101559.31;2072936;28;20046;-71
2022/04/26 03:38:57;;;;;;;19.63;10.77;;;;;;;4.19;97.17;101561.03;2072204;28;44979;-71
2022/04/26 03:40:01;;;;;;;23.92;11.45;;;;;;;4.18;96.57;101561.00;2071830;28;43932;-71
2022/04/26 03:41:03;;;;;;;22.42;11.18;;;;;;;4.16;96.39;101568.97;2072421;28;39147;-71
2022/04/26 03:42:05;;;;;;;20.27;10.60;;;;;;;4.19;97.48;101568.09;2071925;28;44105;-71
2022/04/26 03:43:07;;;;;;;22.27;11.98;;;;;;;4.18;96.81;101558.34;2080497;28;20163;-71
2022/04/26 03:44:09;;;;;;;19.63;12.70;;;;;;;4.19;97.55;101568.97;2062100;28;44447;-71
2022/04/26 03:45:11;;;;;;;21.85;10.63;;;;;;;4.13;97.14;101568.91;2063796;28;41923;-71
2022/04/26 03:46:13;;;;;;;19.77;10.95;;;;;;;4.12;97.31;101560.94;2072009;28;45412;-71
2022/04/26 03:47:14;;;;;;;17.35;11.40;;;;;;;4.09;96.97;101567.09;2071901;28;45673;-71
2022/04/26 03:48:17;;;;;;;17.40;9.82;;;;;;;4.05;96.79;101567.91;2072582;28;30269;-71
2022/04/26 03:49:21;;;;;;;21.05;11.23;;;;;;;4.02;97.34;101565.22;2072398;28;20039;-71
2022/04/26 03:50:25;;;;;;;16.15;10.23;;;;;;;3.99;96.98;101571.34;2070840;28;44449;-71
2022/04/26 03:51:27;;;;;;;16.10;10.70;;;;;;;3.96;97.20;101570.41;2071286;28;45804;-70
2022/04/26 03:52:29;;;;;;;18.88;11.02;;;;;;;3.92;96.98;101566.84;2071593;28;45043;-71
2022/04/26 03:53:30;;;;;;;19.83;10.50;;;;;;;3.91;97.21;101569.47;2071718;28;46551;-71
2022/04/26 03:54:34;;;;;;;21.52;11.00;;;;;;;3.89;97.19;101566.78;2071712;28;44831;-71
2022/04/26 03:55:36;;;;;;;22.00;10.95;;;;;;;3.88;96.87;101569.44;2071955;28;20046;-71
2022/04/26 03:56:38;;;;;;;17.90;9.95;;;;;;;3.87;97.25;101572.94;2064841;28;20053;-71
2022/04/26 03:57:40;;;;;;;21.48;11.02;;;;;;;3.88;97.23;101577.38;2071636;28;43898;-71
2022/04/26 03:58:42;;;;;;;22.08;12.50;;;;;;;3.91;97.66;101573.03;2071765;28;44932;-70
2022/04/26 03:59:44;;;;;;;17.80;11.10;;;;;;;3.91;97.39;101573.03;2072601;28;20043;-71
2022/04/26 04:00:45;;;;;;;19.88;11.80;;;;;;;3.89;97.68;101573.84;2072826;28;20126;-70
2022/04/26 04:01:47;;;;;;;25.48;13.65;;;;;;;3.90;97.57;101567.69;2063155;28;46570;-71
2022/04/26 04:02:50;;;;;;;20.15;11.80;;;;;;;3.90;97.94;101570.34;2071255;28;38227;-71
2022/04/26 04:03:51;;;;;;;23.58;13.52;;;;;;;3.94;97.86;101566.88;2070792;28;43435;-71
2022/04/26 04:04:53;;;;;;;20.48;11.75;;;;;;;3.89;97.83;101574.72;2071301;28;43780;-70
2022/04/26 04:05:57;;;;;;;22.33;13.07;;;;;;;3.87;97.65;101572.94;2072226;28;20042;-71
2022/04/26 04:07:00;;;;;;;23.73;12.50;;;;;;;3.87;97.56;101573.81;2071220;28;44019;-71
2022/04/26 04:08:02;;;;;;;18.77;12.05;;;;;;;3.90;97.79;101571.22;2071348;28;44820;-71
2022/04/26 04:09:04;;;;;;;19.50;10.88;;;;;;;3.89;98.06;101568.56;2071038;28;44314;-71
2022/04/26 04:10:06;;;;;;;22.15;11.73;;;;;;;3.95;98.32;101576.59;2071309;28;44563;-71
2022/04/26 04:11:10;;;;;;;26.73;14.68;;;;;;;4.00;98.48;101575.78;2071186;28;45444;-70
2022/04/26 04:12:12;;;;;;;24.45;12.07;;;;;;;3.96;98.12;101576.59;2071080;28;43993;-71
2022/04/26 04:13:16;;;;;;;26.17;13.25;;;;;;;3.93;98.19;101575.66;2071237;28;43002;-71
2022/04/26 04:14:17;;;;;;;28.33;13.73;;;;;;;3.98;98.10;101579.28;2071803;28;44226;-71
2022/04/26 04:15:20;;;;;;;19.70;11.68;;;;;;;3.94;98.18;101577.47;2070797;28;40089;-71
2022/04/26 04:16:21;;;;;;;21.27;12.73;;;;;;;3.99;98.06;101581.94;2071187;28;43025;-71
2022/04/26 04:17:25;;;;;;;29.05;14.43;;;;;;;3.98;97.83;101585.50;2073028;28;20804;-71
2022/04/26 04:19:47;;;;;;;26.02;12.82;;;;;;;4.00;98.32;101580.19;2070900;28;44266;-71
2022/04/26 04:20:49;;;;;;;15.93;10.85;;;;;;;3.98;98.20;101580.19;2071257;28;42723;-71
2022/04/26 04:21:51;;;;;;;15.02;11.30;;;;;;;4.04;98.66;101581.13;2071476;28;43895;-72
2022/04/26 04:22:55;;;;;;;24.13;12.82;;;;;;;3.99;98.32;101579.31;2071030;28;46156;-72
2022/04/26 04:23:58;;;;;;;18.98;11.35;;;;;;;4.01;97.91;101584.63;2063722;28;42240;-72
2022/04/26 04:24:59;;;;;;;24.33;12.63;;;;;;;4.00;98.51;101583.75;2061974;28;45420;-71
2022/04/26 04:26:01;;;;;;;20.45;12.25;;;;;;;3.99;98.16;101581.06;2071013;28;46387;-71
2022/04/26 04:27:04;;;;;;;18.55;11.07;;;;;;;4.01;98.21;101588.16;2071405;28;43232;-72
2022/04/26 04:28:05;;;;;;;20.15;11.93;;;;;;;4.05;97.75;101586.44;2071045;28;43983;-72
2022/04/26 04:29:10;;;;;;;18.67;11.05;;;;;;;4.10;98.30;101583.88;2071126;28;44652;-72
2022/04/26 04:30:12;;;;;;;20.15;12.32;;;;;;;4.13;98.35;101579.50;2062440;28;45644;-72
2022/04/26 04:31:14;;;;;;;24.75;13.50;;;;;;;4.17;98.17;101585.75;2071543;28;33324;-71
2022/04/26 04:32:16;;;;;;;19.65;12.23;;;;;;;4.21;98.74;101587.56;2072493;28;20168;-72
2022/04/26 04:33:18;;;;;;;23.45;13.27;;;;;;;4.29;98.24;101579.69;2071744;28;43953;-71
2022/04/26 04:34:19;;;;;;;25.42;13.43;;;;;;;4.35;98.61;101591.28;2071537;28;29185;-72
2022/04/26 04:35:25;;;;;;;22.70;13.35;;;;;;;4.46;97.91;101580.81;2071708;28;20967;-72
2022/04/26 04:36:28;;;;;;;19.33;12.65;;;;;;;4.56;98.81;101581.84;2072312;28;20050;-72
2022/04/26 04:37:30;;;;;;;24.08;11.80;;;;;;;4.65;98.63;101583.66;2078864;28;43161;-71
2022/04/26 04:38:32;;;;;;;20.40;12.20;;;;;;;4.70;97.88;101582.88;2079065;28;43620;-71
2022/04/26 04:39:33;;;;;;;24.60;14.05;;;;;;;4.75;97.49;101582.91;2071700;28;37162;-71
2022/04/26 04:40:37;;;;;;;23.63;12.20;;;;;;;4.81;97.53;101574.13;2071865;28;20804;-71
2022/04/26 04:41:39;;;;;;;18.85;11.63;;;;;;;4.90;97.83;101577.78;2071522;28;20042;-72
2022/04/26 04:42:40;;;;;;;15.45;10.63;;;;;;;4.98;97.56;101583.16;2062807;28;44907;-72
2022/04/26 04:43:42;;;;;;;22.17;12.50;;;;;;;5.04;97.21;101585.88;2071340;28;45450;-72
2022/04/26 04:44:44;;;;;;;20.67;11.63;;;;;;;5.12;96.25;101576.25;2071373;28;45777;-72
2022/04/26 04:45:47;;;;;;;16.10;10.20;;;;;;;5.22;96.12;101584.28;2072081;28;43877;-72
2022/04/26 04:46:49;;;;;;;16.85;11.27;;;;;;;5.31;96.28;101579.06;2071655;28;44780;-73
2022/04/26 04:47:51;;;;;;;16.30;9.93;;;;;;;5.50;97.22;101585.44;2072171;28;40017;-73
2022/04/26 04:48:52;;;;;;;20.67;10.40;;;;;;;5.70;95.74;101585.59;2070545;28;45689;-73
2022/04/26 04:49:54;;;;;;;22.40;11.68;;;;;;;5.86;94.45;101587.47;2070086;28;45236;-73
2022/04/26 04:50:56;;;;;;;19.35;10.63;;;;;;;5.91;93.71;101585.72;2071491;28;44476;-73
2022/04/26 04:51:57;;;;;;;19.33;11.05;;;;;;;6.17;93.06;101592.13;2071594;28;44037;-72
2022/04/26 04:53:00;;;;;;;18.33;9.85;;;;;;;6.37;92.85;101585.16;2070475;28;43472;-72
2022/04/26 04:54:02;;;;;;;14.40;9.25;;;;;;;6.55;91.54;101589.66;2070854;28;43690;-73
2022/04/26 04:55:04;;;;;;;15.60;9.80;;;;;;;6.79;90.51;101588.84;2071211;28;43876;-73
2022/04/26 04:56:10;;;;;;;14.77;9.07;;;;;;;7.02;90.33;101591.59;2071217;28;44845;-73
2022/04/26 04:57:12;;;;;;;14.50;9.02;;;;;;;7.29;90.01;101583.66;2071368;28;45365;-73
2022/04/26 04:58:15;;;;;;;20.42;8.45;;;;;;;7.31;87.46;101589.84;2070864;28;44308;-73
2022/04/26 04:59:16;;;;;;;13.27;8.02;;;;;;;7.50;87.09;101599.66;2062927;28;44530;-73
2022/04/26 05:00:18;;;;;;;13.57;7.90;;;;;;;7.76;87.26;101596.97;2071020;28;45250;-73
2022/04/26 05:01:20;;;;;;;11.50;7.45;;;;;;;7.94;86.04;101590.72;2071224;28;44547;-73
2022/04/26 05:02:22;;;;;;;13.65;6.30;;;;;;;8.07;85.91;101590.69;2071534;28;45014;-72
2022/04/26 05:03:24;;;;;;;11.80;6.20;;;;;;;8.00;84.61;101590.72;2071846;28;40087;-73
2022/04/26 05:04:25;;;;;;;14.00;7.20;;;;;;;7.80;84.21;101590.72;2070276;28;43435;-73
2022/04/26 05:05:27;;;;;;;14.20;7.53;;;;;;;7.61;83.00;101594.31;2071568;28;20848;-72
2022/04/26 05:06:30;;;;;;;10.18;6.90;;;;;;;7.83;84.79;101581.84;2072787;28;20920;-73
2022/04/26 05:07:32;;;;;;;11.48;7.18;;;;;;;7.99;84.01;101582.72;2073204;28;20046;-72
2022/04/26 05:08:34;;;;;;;13.38;7.13;;;;;;;8.08;82.17;101589.81;2071259;28;44903;-73
2022/04/26 05:09:39;;;;;;;11.32;6.80;;;;;;;8.45;82.36;101587.06;2070001;28;42972;-72
2022/04/26 05:10:40;;;;;;;11.15;6.53;;;;;;;8.70;81.93;101583.38;2070539;28;44663;-72
2022/04/26 05:11:42;;;;;;;15.57;7.30;;;;;;;9.01;81.57;101585.91;2070385;28;45864;-73
2022/04/26 05:12:44;;;;;;;15.20;6.82;;;;;;;8.76;78.73;101578.03;2071046;28;39582;-72
2022/04/26 05:13:46;;;;;;;11.70;6.40;;;;;;;9.19;79.44;101582.22;2071164;28;46526;-72
2022/04/26 05:14:48;;;;;;;9.25;5.85;;;;;;;9.53;79.77;101577.50;2070772;28;44596;-72
2022/04/26 05:15:49;;;;;;;9.75;6.75;;;;;;;9.35;77.63;101575.88;2070588;28;43057;-72
2022/04/26 05:16:51;;;;;;;13.60;6.38;;;;;;;9.02;76.06;101585.00;2070400;28;46006;-71
2022/04/26 05:17:53;;;;;;;15.13;6.35;;;;;;;8.88;77.79;101581.53;2071535;28;28112;-71
2022/04/26 05:18:54;;;;;;;11.35;6.25;;;;;;;9.23;78.94;101589.31;2071069;28;45167;-71
2022/04/26 05:19:57;;;;;;;10.15;6.07;;;;;;;9.58;78.45;101584.59;2070960;28;43524;-72
2022/04/26 05:20:59;;;;;;;8.95;5.95;;;;;;;9.93;78.43;101581.59;2071273;28;43912;-72
2022/04/26 05:22:01;;;;;;;10.77;6.30;;;;;;;10.20;76.43;101577.75;2071403;28;45690;-71
2022/04/26 05:25:45;;;;;;;8.63;5.68;;;;;;;10.73;73.93;101590.53;2070509;28;42928;-71
2022/04/26 05:26:49;;;;;;;11.73;4.90;;;;;;;10.87;74.02;101583.19;2065335;28;45609;-72
2022/04/26 05:27:50;;;;;;;10.75;5.90;;;;;;;10.63;72.22;101587.97;2070948;28;46015;-72
2022/04/26 05:28:52;;;;;;;12.85;6.45;;;;;;;10.56;72.58;101583.59;2070580;28;45329;-72
2022/04/26 05:29:55;;;;;;;11.57;5.88;;;;;;;10.33;73.33;101591.91;2070843;28;46325;-72
2022/04/26 05:30:57;;;;;;;10.45;5.55;;;;;;;9.92;72.99;101598.53;2070789;28;44783;-72
2022/04/26 05:31:59;;;;;;;12.40;6.25;;;;;;;9.78;73.34;101598.69;2070758;28;45317;-72
2022/04/26 05:33:01;;;;;;;11.68;6.35;;;;;;;9.62;74.18;101597.03;2070348;28;46334;-71
2022/04/26 05:34:02;;;;;;;10.10;6.20;;;;;;;9.44;74.58;101598.97;2071031;28;43385;-72
2022/04/26 05:35:10;;;;;;;12.70;5.93;;;;;;;9.19;75.24;101606.28;2071459;28;20862;-73
2022/04/26 05:36:14;;;;;;;12.13;6.70;;;;;;;8.84;77.63;101603.81;2071843;28;20069;-72
2022/04/26 05:37:17;;;;;;;11.63;6.35;;;;;;;8.79;78.08;101596.72;2071585;28;20792;-73
2022/04/26 05:38:19;;;;;;;12.00;7.35;;;;;;;8.72;78.77;101602.97;2070905;28;31748;-72
2022/04/26 05:39:20;;;;;;;11.55;6.88;;;;;;;8.42;79.52;101601.31;2070489;28;42970;-73
2022/04/26 05:40:23;;;;;;;12.02;6.80;;;;;;;8.25;80.22;101597.75;2070991;28;20147;-72
2022/04/26 05:41:25;;;;;;;12.63;7.53;;;;;;;7.96;80.62;101604.94;2101084;23;25082;-67
2022/04/26 05:42:29;;;;;;;11.88;7.72;;;;;;;7.90;81.76;101610.28;2089536;28;44780;-67
2022/04/26 05:43:33;;;;;;;14.80;7.70;;;;;;;7.70;82.18;101606.72;2095318;28;46089;-68
2022/04/26 05:44:38;;;;;;;12.43;7.38;;;;;;;7.75;82.20;101608.53;2087701;28;20146;-67
2022/04/26 05:45:40;;;;;;;13.15;7.38;;;;;;;7.82;83.12;101607.63;2078334;28;45221;-67
2022/04/26 05:46:43;;;;;;;11.52;7.38;;;;;;;7.81;83.32;101618.28;2075032;28;44959;-66
2022/04/26 05:47:45;;;;;;;14.98;7.93;;;;;;;7.85;83.09;101617.38;2078809;28;45453;-67
2022/04/26 05:48:47;;;;;;;11.82;7.95;;;;;;;7.83;82.85;101616.50;2078638;28;34159;-67
2022/04/26 05:49:49;;;;;;;13.18;7.95;;;;;;;7.75;83.28;101611.19;2078936;28;43303;-67
2022/04/26 05:50:51;;;;;;;13.80;8.02;;;;;;;7.73;83.10;101612.94;2079386;28;43078;-67
2022/04/26 05:51:52;;;;;;;15.35;7.80;;;;;;;7.72;83.50;101616.50;2079271;28;44478;-66
2022/04/26 05:52:54;;;;;;;12.20;8.20;;;;;;;7.53;83.91;101615.63;2078882;28;44251;-67
2022/04/26 05:53:55;;;;;;;15.05;8.50;;;;;;;7.48;84.38;101616.50;2078899;28;42661;-66
2022/04/26 05:54:58;;;;;;;13.93;8.35;;;;;;;7.58;84.31;101618.28;2079034;28;45649;-67
2022/04/26 05:56:00;;;;;;;13.45;8.75;;;;;;;7.52;84.53;101619.19;2078610;28;45223;-66
2022/04/26 05:57:02;;;;;;;15.07;8.15;;;;;;;7.68;84.39;101613.84;2076488;28;46419;-67
2022/04/26 05:58:04;;;;;;;14.10;8.70;;;;;;;7.69;84.13;101616.50;2071193;28;20106;-66
2022/04/26 05:59:06;;;;;;;14.65;8.73;;;;;;;7.66;84.20;101616.50;2079074;28;20160;-68
2022/04/26 06:00:11;;;;;;;12.75;8.40;;;;;;;7.70;83.87;101617.38;2086743;28;44437;-68
2022/04/26 06:01:15;;;;;;;18.65;9.32;;;;;;;7.80;84.27;101627.16;2085424;28;44145;-66
2022/04/26 06:02:17;;;;;;;14.23;9.18;;;;;;;7.72;83.99;101632.50;2074553;28;45680;-67
2022/04/26 06:03:21;;;;;;;14.77;9.52;;;;;;;7.78;83.85;101626.28;2072035;28;20093;-67
2022/04/26 06:04:24;;;;;;;15.50;8.98;;;;;;;7.74;83.92;101635.19;2070797;28;43088;-67
2022/04/26 06:05:26;;;;;;;12.38;8.90;;;;;;;7.82;84.07;101639.63;2071200;28;43333;-67
2022/04/26 06:06:27;;;;;;;15.85;8.75;;;;;;;7.96;84.00;101628.94;2070885;28;45395;-66
2022/04/26 06:07:29;;;;;;;16.40;9.30;;;;;;;8.09;83.52;101629.78;2070822;28;44177;-66
2022/04/26 06:08:31;;;;;;;19.38;9.85;;;;;;;8.15;82.48;101643.13;2070981;28;43071;-67
2022/04/26 06:09:34;;;;;;;16.98;9.90;;;;;;;8.24;81.63;101634.22;2075676;28;20132;-66
2022/04/26 06:10:40;;;;;;;14.10;9.27;;;;;;;8.48;81.41;101627.97;2073532;28;38964;-67
2022/04/26 06:11:43;;;;;;;12.65;8.95;;;;;;;9.16;80.66;101631.22;2075466;28;20042;-68
2022/04/26 06:12:48;;;;;;;16.08;8.57;;;;;;;9.45;78.63;101627.47;2079170;28;20050;-67
2022/04/26 06:13:51;;;;;;;14.05;8.20;;;;;;;9.94;77.83;101621.72;2076080;28;42589;-67
2022/04/26 06:14:56;;;;;;;11.20;7.38;;;;;;;10.38;74.34;101622.19;2079237;28;45146;-67
2022/04/26 06:15:58;;;;;;;14.18;8.15;;;;;;;10.57;72.66;101625.56;2079958;28;20086;-66
2022/04/26 06:17:00;;;;;;;12.55;7.72;;;;;;;11.02;73.12;101620.50;2078393;28;44315;-67
2022/04/26 06:18:02;;;;;;;11.90;7.40;;;;;;;11.04;71.50;101618.69;2076162;28;28735;-68
2022/04/26 06:19:03;;;;;;;13.38;7.32;;;;;;;11.87;69.09;101618.31;2077466;28;44913;-67
2022/04/26 06:20:06;;;;;;;13.93;7.38;;;;;;;12.49;67.88;101615.38;2070409;28;42776;-67
2022/04/26 06:21:10;;;;;;;13.90;6.88;;;;;;;13.03;65.87;101615.13;2070874;28;41408;-67
2022/04/26 06:22:15;;;;;;;8.57;6.22;;;;;;;13.97;61.91;101604.81;2071134;28;20054;-67
2022/04/26 06:23:16;;;;;;;11.35;6.32;;;;;;;14.67;60.78;101610.06;2072819;28;30091;-67
2022/04/26 06:24:18;;;;;;;12.02;6.70;;;;;;;15.16;58.67;101605.00;2078234;28;44410;-66
2022/04/26 06:25:20;;;;;;;9.48;5.78;;;;;;;15.45;56.31;101603.19;2078703;28;45482;-67
2022/04/26 06:26:24;;;;;;;10.10;6.18;;;;;;;15.33;54.89;101601.78;2079713;28;21020;-67
2022/04/26 06:27:27;;;;;;;11.18;6.13;;;;;;;15.58;57.02;101609.97;2080269;28;20836;-67
2022/04/26 06:28:28;;;;;;;9.95;6.07;;;;;;;15.60;55.94;101602.69;2078664;28;44275;-67
2022/04/26 06:29:30;;;;;;;12.60;6.85;;;;;;;16.44;55.46;101594.41;2076523;28;46047;-67
2022/04/26 06:30:37;;;;;;;9.07;5.95;;;;;;;16.98;53.20;101601.41;2070802;28;33949;-65
2022/04/26 06:31:40;;;;;;;9.85;6.40;;;;;;;17.10;51.37;101598.22;2070824;28;44027;-68
2022/04/26 06:32:43;;;;;;;9.70;6.28;;;;;;;17.59;48.68;101594.47;2070852;28;42884;-67
2022/04/26 06:33:47;;;;;;;9.32;6.03;;;;;;;17.65;48.35;101599.59;2071888;28;20038;-67
2022/04/26 06:34:49;;;;;;;8.52;6.05;;;;;;;18.37;49.49;101604.63;2070575;28;44325;-67
2022/04/26 06:35:53;;;;;;;9.43;5.60;;;;;;;18.41;48.91;101602.66;2078397;28;45584;-67
2022/04/26 06:36:55;;;;;;;10.80;6.30;;;;;;;18.15;46.97;101607.41;2078191;28;43869;-68
2022/04/26 06:37:58;;;;;;;10.63;6.13;;;;;;;17.82;48.73;101607.00;2070880;28;43934;-68
2022/04/26 06:39:00;;;;;;;10.30;6.40;;;;;;;18.59;49.72;101601.84;2078268;28;42934;-68
2022/04/26 06:40:03;;;;;;;9.98;6.10;;;;;;;19.15;45.94;101601.94;2079023;28;46435;-68
2022/04/26 06:41:06;;;;;;;10.32;6.40;;;;;;;19.44;44.21;101601.41;2083719;28;20030;-67
2022/04/26 06:42:10;;;;;;;12.80;6.32;;;;;;;19.32;47.55;101604.72;2078128;28;20192;-66
2022/04/26 06:43:15;;;;;;;8.48;5.68;;;;;;;19.89;44.17;101593.75;2078326;28;20050;-67
2022/04/26 06:44:17;;;;;;;9.85;6.70;;;;;;;19.29;46.52;101609.44;2070121;28;42983;-67
2022/04/26 06:45:19;;;;;;;10.07;6.45;;;;;;;19.61;42.99;101605.13;2077523;28;47878;-67
2022/04/26 06:46:20;;;;;;;12.23;6.78;;;;;;;20.26;43.71;101607.25;2078500;28;44628;-68
2022/04/26 06:47:25;;;;;;;11.15;6.30;;;;;;;19.89;41.98;101612.78;2078977;28;45751;-67
2022/04/26 06:48:27;;;;;;;9.02;6.20;;;;;;;19.79;43.02;101609.69;2077532;28;45021;-67
2022/04/26 06:49:29;;;;;;;10.50;6.80;;;;;;;17.81;47.17;101616.09;2077948;28;43925;-69
2022/04/26 06:50:30;;;;;;;9.30;6.43;;;;;;;18.84;45.71;101616.97;2069872;28;45507;-68
2022/04/26 06:51:40;;;;;;;10.05;6.50;;;;;;;18.54;47.60;101619.25;2070468;28;43055;-74
2022/04/26 06:52:42;;;;;;;10.35;6.78;;;;;;;18.66;46.05;101614.16;2076330;28;42107;-67
2022/04/26 06:53:44;;;;;;;7.68;6.07;;;;;;;18.89;46.04;101615.81;2078785;28;45810;-65
2022/04/26 06:54:45;;;;;;;10.10;6.82;;;;;;;18.51;45.14;101617.56;2078921;28;41778;-67
2022/04/26 06:55:47;;;;;;;10.25;6.70;;;;;;;19.30;45.53;101609.34;2078415;28;45189;-65
2022/04/26 06:56:49;;;;;;;9.40;6.53;;;;;;;19.83;43.95;101608.56;2078390;28;43443;-64
2022/04/26 06:57:51;;;;;;;11.15;7.00;;;;;;;19.36;44.52;101609.09;2078847;28;44102;-67
2022/04/26 06:58:53;;;;;;;11.93;6.72;;;;;;;19.10;46.61;101617.59;2078714;28;46059;-67
2022/04/26 06:59:54;;;;;;;8.77;6.72;;;;;;;19.00;45.54;101628.88;2078894;28;45557;-66
2022/04/26 07:00:56;;;;;;;8.55;7.00;;;;;;;19.11;46.15;101624.78;2073983;28;45697;-68
2022/04/26 07:02:00;;;;;;;9.38;6.65;;;;;;;19.20;45.36;101624.31;2070284;28;46055;-65
2022/04/26 07:03:03;;;;;;;9.18;7.05;;;;;;;18.88;46.47;101622.22;2079287;28;20090;-66
2022/04/26 07:04:07;;;;;;;11.35;6.75;;;;;;;18.22;47.06;101624.31;2077693;28;46184;-66
2022/04/26 07:05:11;;;;;;;10.18;7.25;;;;;;;18.26;46.94;101629.50;2070849;28;44286;-66
2022/04/26 07:06:13;;;;;;;9.63;7.32;;;;;;;18.21;47.28;101627.94;2074860;28;38022;-66
2022/04/26 07:07:14;;;;;;;10.00;7.05;;;;;;;18.07;47.89;101636.66;2077875;28;44696;-66
2022/04/26 07:08:16;;;;;;;10.00;7.22;;;;;;;17.27;49.01;101634.56;2078861;28;45432;-66
2022/04/26 07:09:19;;;;;;;10.07;7.45;;;;;;;17.56;48.82;101633.34;2078687;28;40275;-68
2022/04/26 07:10:22;;;;;;;13.23;7.53;;;;;;;18.46;47.89;101628.59;2087022;28;20882;-68
2022/04/26 07:11:24;;;;;;;11.82;7.53;;;;;;;18.62;45.78;101633.34;2085004;28;20098;-66
2022/04/26 07:12:25;;;;;;;10.57;6.57;;;;;;;19.15;44.70;101629.09;2074066;28;44917;-66
2022/04/26 07:13:27;;;;;;;12.63;7.20;;;;;;;19.05;46.25;101615.97;2074192;28;45425;-67
2022/04/26 07:14:29;;;;;;;9.77;7.82;;;;;;;19.10;44.92;101621.19;2075719;28;30269;-67
2022/04/26 07:15:33;;;;;;;11.73;7.07;;;;;;;19.02;44.71;101632.44;2074222;28;20061;-66
2022/04/26 07:16:35;;;;;;;11.40;7.35;;;;;;;18.61;46.22;101627.06;2074450;28;44266;-65
2022/04/26 07:17:41;;;;;;;10.93;7.18;;;;;;;19.27;45.90;101623.97;2073659;28;38522;-66
2022/04/26 07:18:43;;;;;;;8.70;6.68;;;;;;;20.18;44.24;101619.41;2073585;28;45607;-65
2022/04/26 07:21:26;;;;;;;9.85;7.15;;;;;;;19.14;42.98;101625.50;2063705;28;20054;-68
2022/04/26 07:22:43;;;;;;;10.18;7.22;;;;;;;20.22;41.79;101625.56;2062484;28;45571;-67
2022/04/26 07:23:45;;;;;;;10.52;7.85;;;;;;;18.94;43.85;101623.75;2062192;28;46222;-67
2022/04/26 07:24:47;;;;;;;10.85;7.50;;;;;;;18.61;44.24;101632.47;2062205;28;44592;-75
2022/04/26 07:25:51;;;;;;;8.48;7.65;;;;;;;19.54;42.58;101622.69;2062694;28;37697;-71
2022/04/26 07:26:55;;;;;;;10.55;7.15;;;;;;;20.88;41.12;101627.50;2062343;28;44439;-70
2022/04/26 07:27:57;;;;;;;11.27;7.63;;;;;;;20.41;42.32;101622.78;2062710;28;42787;-70
2022/04/26 07:28:59;;;;;;;8.10;6.90;;;;;;;21.70;39.53;101618.31;2062377;28;45348;-70
2022/04/26 07:30:01;;;;;;;12.63;7.53;;;;;;;20.52;38.99;101624.91;2062300;28;44637;-70
2022/04/26 07:31:03;;;;;;;10.73;7.57;;;;;;;19.90;42.00;101630.88;2062661;28;43355;-71
2022/04/26 07:32:08;;;;;;;10.18;7.40;;;;;;;20.16;41.16;101625.91;2063158;28;20051;-70
2022/04/26 07:34:30;;;;;;;;;;;;;;;21.04;37.91;101621.22;2062240;28;46696;-69
2022/04/26 07:35:32;;;;;;;8.23;6.78;;;;;;;21.11;38.06;101626.22;2062226;28;42863;-70
2022/04/26 07:36:34;;;;;;;7.72;6.72;;;;;;;21.23;37.66;101629.19;2062397;28;20058;-70
2022/04/26 07:37:39;;;;;;;9.80;6.45;;;;;;;21.13;37.22;101635.19;2063273;28;20042;-70
2022/04/26 07:38:41;;;;;;;8.98;6.53;;;;;;;21.79;36.74;101626.94;2069445;28;43717;-69
2022/04/26 07:39:43;;;;;;;7.68;6.45;;;;;;;20.58;36.66;101628.19;2069604;28;35479;-68
2022/04/26 07:40:46;;;;;;;8.70;6.10;;;;;;;21.28;36.02;101632.56;2063208;28;44369;-71
2022/04/26 07:41:48;;;;;;;8.07;6.13;;;;;;;21.56;35.62;101622.84;2063636;28;45477;-70
2022/04/26 07:42:50;;;;;;;8.93;6.18;;;;;;;21.74;35.41;101624.47;2063437;28;45324;-68
2022/04/26 07:43:52;;;;;;;8.45;6.10;;;;;;;21.25;35.50;101628.16;2063028;28;44882;-69
2022/04/26 07:44:54;;;;;;;9.25;6.53;;;;;;;21.46;34.80;101634.28;2063554;28;44089;-69
2022/04/26 07:45:56;;;;;;;6.85;5.63;;;;;;;21.93;34.22;101627.00;2064041;28;43495;-69
2022/04/26 07:46:58;;;;;;;7.90;6.20;;;;;;;20.85;35.82;101640.41;2063202;28;45532;-69
2022/04/26 07:48:00;;;;;;;8.75;6.20;;;;;;;21.52;34.06;101641.22;2063378;28;46522;-68
2022/04/26 07:49:04;;;;;;;10.52;6.07;;;;;;;22.21;33.94;101641.69;2064575;28;21079;-70
2022/04/26 07:50:06;;;;;;;7.35;5.50;;;;;;;22.57;31.84;101632.22;2062764;28;45488;-70
2022/04/26 07:51:08;;;;;;;5.20;4.68;;;;;;;22.98;30.73;101629.59;2065192;28;44710;-70
2022/04/26 07:52:09;;;;;;;7.90;5.10;;;;;;;22.14;31.94;101643.88;2064709;28;20085;-71
2022/04/26 07:53:11;;;;;;;6.60;5.30;;;;;;;21.94;33.28;101642.38;2064632;28;20050;-70
2022/04/26 07:54:16;;;;;;;8.02;5.82;;;;;;;21.76;32.18;101641.59;2063398;28;35065;-69
2022/04/26 07:55:18;;;;;;;8.45;5.68;;;;;;;22.24;31.62;101639.63;2063668;28;44215;-70
2022/04/26 07:56:21;;;;;;;7.53;5.60;;;;;;;22.12;30.83;101643.97;2070592;28;32374;-70
2022/04/26 07:57:24;;;;;;;4.65;4.25;;;;;;;21.50;32.62;101640.41;2063825;28;44338;-69
2022/04/26 07:58:26;;;;;;;6.15;4.90;;;;;;;19.90;34.28;101649.00;2062821;28;43660;-70
2022/04/26 07:59:28;;;;;;;8.48;4.68;;;;;;;21.24;32.79;101650.03;2064281;28;35516;-68
2022/04/26 08:00:31;;;;;;;6.22;4.97;;;;;;;19.94;35.69;101647.91;2062764;28;44949;-68
2022/04/26 08:01:35;;;;;;;7.40;4.95;;;;;;;20.38;35.18;101648.28;2063741;28;45958;-69
2022/04/26 08:02:36;;;;;;;7.50;4.32;;;;;;;21.41;32.50;101644.53;2063494;28;45482;-69
2022/04/26 08:03:38;;;;;;;5.07;4.30;;;;;;;21.40;32.12;101652.78;2063770;28;44167;-69
2022/04/26 08:04:41;;;;;;;4.82;4.03;;;;;;;20.68;31.69;101655.81;2063978;28;20140;-69
2022/04/26 08:05:43;;;;;;;6.68;3.67;;;;;;;20.17;32.47;101655.75;2063447;28;45782;-68
2022/04/26 08:06:44;;;;;;;6.53;4.25;;;;;;;19.87;33.92;101657.31;2063003;28;46927;-68
2022/04/26 08:07:48;;;;;;;7.03;4.03;;;;;;;19.82;34.00;101658.41;2064355;28;45530;-70
2022/04/26 08:08:53;;;;;;;5.88;4.40;;;;;;;19.48;34.63;101664.63;2063487;28;44488;-70
2022/04/26 08:09:56;;;;;;;5.40;4.55;;;;;;;19.76;34.15;101658.75;2064184;28;45867;-67
2022/04/26 08:11:00;;;;;;;6.00;4.38;;;;;;;18.77;35.93;101667.03;2064008;28;38802;-68
2022/04/26 08:12:04;;;;;;;5.00;4.00;;;;;;;18.53;35.95;101669.03;2063813;28;46170;-69
2022/04/26 08:13:06;;;;;;;6.40;4.05;;;;;;;18.72;35.50;101677.19;2063752;28;44725;-68
2022/04/26 08:14:08;;;;;;;5.78;4.13;;;;;;;19.08;34.41;101666.53;2063651;28;44469;-68
2022/04/26 08:15:10;;;;;;;6.50;4.25;;;;;;;18.22;36.53;101668.53;2063419;28;44880;-69
2022/04/26 08:16:12;;;;;;;5.22;4.03;;;;;;;18.10;36.64;101672.66;2063899;28;44137;-69
2022/04/26 08:17:15;;;;;;;6.20;4.53;;;;;;;18.08;36.65;101665.53;2063318;28;46203;-69
2022/04/26 08:18:17;;;;;;;4.75;4.35;;;;;;;18.23;36.19;101666.69;2063892;28;33532;-69
2022/04/26 08:19:18;;;;;;;5.30;4.15;;;;;;;18.39;34.90;101670.50;2063282;28;45437;-69
2022/04/26 08:20:20;;;;;;;4.10;3.70;;;;;;;18.12;36.26;101678.91;2063470;28;45750;-71
2022/04/26 08:21:24;;;;;;;5.25;4.25;;;;;;;18.35;34.59;101685.16;2063424;28;45501;-69
2022/04/26 08:22:26;;;;;;;4.90;4.05;;;;;;;18.46;34.12;101685.56;2063446;28;43546;-69
2022/04/26 08:23:28;;;;;;;5.68;3.53;;;;;;;18.58;33.98;101678.72;2063658;28;42196;-70
2022/04/26 08:27:25;;;;;;;5.13;3.90;;;;;;;16.87;37.03;101690.19;2062247;28;45052;-68
2022/04/26 08:28:28;;;;;;;5.95;3.85;;;;;;;17.35;37.24;101687.44;2063083;28;46550;-67
2022/04/26 08:29:30;;;;;;;6.07;4.50;;;;;;;16.82;37.90;101695.75;2062875;28;44615;-66
2022/04/26 08:30:34;;;;;;;6.10;4.38;;;;;;;16.93;39.10;101687.25;2064122;28;45553;-67
2022/04/26 08:31:37;;;;;;;7.32;4.63;;;;;;;17.66;37.31;101691.63;2063184;28;46336;-70
2022/04/26 08:32:41;;;;;;;4.88;3.92;;;;;;;18.27;35.88;101690.03;2063937;28;33981;-69
2022/04/26 08:33:43;;;;;;;4.32;3.42;;;;;;;19.16;34.60;101687.88;2063487;28;45318;-68
2022/04/26 08:34:47;;;;;;;6.15;3.95;;;;;;;19.24;34.31;101689.28;2063701;28;45706;-67
2022/04/26 08:35:49;;;;;;;4.47;3.95;;;;;;;18.99;32.70;101678.69;2063604;28;44312;-68